Time;durP1;ratioP1;P1;durP2;ratioP2;P2;SDS_P1;SDS_P2;PMS_P1;PMS_P2;Temp;Humidity;BMP_temperature;BMP_pressure;BME280_temperature;BME280_humidity;BME280_pressure;Samples;Min_cycle;Max_cycle;Signal;HPM_P1;HPM_P2
2022/07/15 00:01:49;;;;;;;2.27;2.07;;;26.10;82.00;;;;;;5094076;28;20211;-95
2022/07/15 00:04:15;;;;;;;1.87;1.77;;;26.00;82.10;;;;;;5096901;28;20424;-95
2022/07/15 00:06:40;;;;;;;3.30;2.90;;;26.00;82.10;;;;;;5095131;28;20498;-94
2022/07/15 00:09:06;;;;;;;1.80;1.70;;;26.00;82.20;;;;;;5094411;28;20550;-96
2022/07/15 00:11:32;;;;;;;3.37;1.97;;;26.00;82.20;;;;;;5093952;28;20283;-94
2022/07/15 00:13:57;;;;;;;2.37;2.17;;;26.00;82.30;;;;;;5095528;28;20219;-94
2022/07/15 00:16:23;;;;;;;3.07;2.20;;;25.90;82.30;;;;;;5100572;28;20616;-96
2022/07/15 00:18:49;;;;;;;2.70;2.23;;;25.90;82.40;;;;;;5100318;28;20228;-95
2022/07/15 00:21:14;;;;;;;2.20;1.90;;;25.80;82.50;;;;;;5096504;28;20214;-96
2022/07/15 00:23:40;;;;;;;2.53;2.07;;;25.80;82.60;;;;;;5098500;28;20201;-95
2022/07/15 00:26:06;;;;;;;2.80;2.60;;;25.80;82.80;;;;;;5094059;28;20172;-94
2022/07/15 00:28:32;;;;;;;1.80;1.70;;;25.70;82.80;;;;;;5094796;28;20185;-94
2022/07/15 00:30:57;;;;;;;2.57;2.37;;;25.70;82.80;;;;;;5095288;28;20394;-94
2022/07/15 00:33:23;;;;;;;5.53;2.43;;;25.70;82.90;;;;;;5093938;28;20216;-96
2022/07/15 00:35:49;;;;;;;2.33;2.20;;;25.70;83.00;;;;;;5094084;28;20172;-93
2022/07/15 00:38:15;;;;;;;1.80;1.70;;;25.70;84.10;;;;;;5094141;28;20204;-95
2022/07/15 00:40:45;;;;;;;2.40;2.20;;;25.60;83.80;;;;;;5095383;28;20803;-93
2022/07/15 00:43:11;;;;;;;2.10;1.97;;;25.60;83.80;;;;;;5095547;28;20457;-95
2022/07/15 00:45:37;;;;;;;2.43;2.23;;;25.60;84.00;;;;;;5093767;28;20412;-94
2022/07/15 00:48:03;;;;;;;1.90;1.80;;;25.50;84.20;;;;;;5095058;28;20798;-95
2022/07/15 00:50:30;;;;;;;3.67;2.03;;;25.50;85.20;;;;;;5093730;28;20665;-95
2022/07/15 00:53:03;;;;;;;2.67;2.20;;;25.50;85.50;;;;;;5093728;28;20463;-96
2022/07/15 00:55:31;;;;;;;2.30;2.10;;;25.40;85.60;;;;;;5095972;28;20425;-94
2022/07/15 00:58:01;;;;;;;2.80;2.50;;;25.30;84.70;;;;;;5094560;28;21031;-94
2022/07/15 01:00:28;;;;;;;3.07;2.17;;;25.30;85.10;;;;;;5094336;28;20910;-96
2022/07/15 01:02:54;;;;;;;2.40;2.20;;;25.30;85.30;;;;;;5094831;28;20440;-95
2022/07/15 01:05:21;;;;;;;2.93;2.30;;;25.20;85.40;;;;;;5093611;28;20428;-94
2022/07/15 01:07:49;;;;;;;2.70;2.50;;;25.10;85.50;;;;;;5094029;28;20483;-96
2022/07/15 01:10:16;;;;;;;2.47;2.27;;;25.10;85.10;;;;;;5093625;28;20940;-95
2022/07/15 01:12:42;;;;;;;2.20;2.00;;;25.00;85.50;;;;;;5093481;28;20452;-94
2022/07/15 01:15:09;;;;;;;2.50;2.30;;;25.00;85.50;;;;;;5093626;28;20984;-95
2022/07/15 01:17:35;;;;;;;4.90;2.50;;;24.90;85.60;;;;;;5093432;28;20439;-94
2022/07/15 01:20:01;;;;;;;5.37;2.77;;;24.80;85.70;;;;;;5094591;28;20928;-92
2022/07/15 01:22:27;;;;;;;2.70;2.30;;;24.70;85.70;;;;;;5095619;28;20440;-95
2022/07/15 01:24:53;;;;;;;2.20;2.10;;;24.60;86.10;;;;;;5094533;28;20193;-94
2022/07/15 01:27:20;;;;;;;2.83;2.43;;;24.60;86.50;;;;;;5093327;28;20214;-95
2022/07/15 01:29:46;;;;;;;2.77;2.57;;;24.50;86.60;;;;;;5095840;28;20419;-95
2022/07/15 01:32:12;;;;;;;3.33;2.20;;;24.40;86.60;;;;;;5097011;28;20974;-94
2022/07/15 01:34:38;;;;;;;2.60;2.40;;;24.40;86.60;;;;;;5101471;28;20494;-93
2022/07/15 01:37:04;;;;;;;2.33;2.13;;;24.40;86.60;;;;;;5100717;28;20440;-94
2022/07/15 01:39:29;;;;;;;2.37;2.07;;;24.40;87.00;;;;;;5100605;28;20175;-94
2022/07/15 01:41:55;;;;;;;3.97;2.13;;;24.30;86.80;;;;;;5098044;28;20201;-94
2022/07/15 01:44:21;;;;;;;2.37;2.17;;;24.30;87.00;;;;;;5097377;28;20183;-94
2022/07/15 01:46:47;;;;;;;2.53;2.33;;;24.30;87.10;;;;;;5098993;28;20202;-95
2022/07/15 01:49:22;;;;;;;2.57;2.30;;;24.30;86.60;;;;;;5101577;28;20446;-94
2022/07/15 01:51:48;;;;;;;2.80;2.57;;;24.30;86.30;;;;;;5100764;28;20243;-94
2022/07/15 01:54:14;;;;;;;2.60;2.03;;;24.20;86.20;;;;;;5097125;28;20476;-95
2022/07/15 01:56:40;;;;;;;2.17;1.97;;;24.20;86.10;;;;;;5099899;28;20439;-95
2022/07/15 01:59:05;;;;;;;2.20;2.00;;;24.30;86.20;;;;;;5098479;28;20195;-94
2022/07/15 02:01:31;;;;;;;2.00;1.90;;;24.30;86.10;;;;;;5099256;28;20694;-93
2022/07/15 02:03:57;;;;;;;2.27;1.90;;;24.30;86.80;;;;;;5098194;28;20178;-95
2022/07/15 02:06:23;;;;;;;1.90;1.80;;;24.30;85.90;;;;;;5096226;28;20909;-96
2022/07/15 02:08:49;;;;;;;2.00;1.90;;;24.30;85.80;;;;;;5096324;28;20523;-95
2022/07/15 02:11:15;;;;;;;2.93;2.10;;;24.30;85.70;;;;;;5096512;28;20243;-96
2022/07/15 02:13:40;;;;;;;5.23;2.00;;;24.30;85.60;;;;;;5096584;28;20701;-95
2022/07/15 02:16:07;;;;;;;4.00;1.77;;;24.30;85.40;;;;;;5097342;28;20166;-94
2022/07/15 02:18:33;;;;;;;2.33;2.13;;;24.30;85.30;;;;;;5096639;28;20182;-96
2022/07/15 02:20:59;;;;;;;2.73;2.50;;;24.30;85.20;;;;;;5097236;28;20448;-94
2022/07/15 02:23:25;;;;;;;2.40;2.20;;;24.40;85.30;;;;;;5097522;28;20443;-96
2022/07/15 02:25:50;;;;;;;2.40;2.10;;;24.30;85.20;;;;;;5096071;28;20265;-95
2022/07/15 02:28:16;;;;;;;1.93;1.83;;;24.30;85.20;;;;;;5099533;28;20198;-94
2022/07/15 02:30:43;;;;;;;1.77;1.67;;;24.30;85.30;;;;;;5096247;28;20205;-96
2022/07/15 02:33:09;;;;;;;1.90;1.80;;;24.30;85.30;;;;;;5100203;28;20203;-95
2022/07/15 02:35:37;;;;;;;3.43;2.20;;;24.30;85.40;;;;;;5096934;28;20465;-96
2022/07/15 02:38:03;;;;;;;2.50;2.27;;;24.40;85.50;;;;;;5095727;28;20508;-95
2022/07/15 02:40:30;;;;;;;2.20;1.80;;;24.30;85.50;;;;;;5097322;28;20426;-94
2022/07/15 02:42:59;;;;;;;2.60;2.40;;;24.30;85.60;;;;;;5096563;28;20461;-96
2022/07/15 02:45:27;;;;;;;2.40;2.20;;;24.30;85.70;;;;;;5099695;28;20904;-94
2022/07/15 02:47:53;;;;;;;3.60;2.47;;;24.30;85.70;;;;;;5095523;28;20792;-94
2022/07/15 02:50:21;;;;;;;2.43;2.23;;;24.20;85.80;;;;;;5096632;28;20410;-92
2022/07/15 02:52:47;;;;;;;3.10;2.50;;;24.20;85.80;;;;;;5105863;28;20443;-95
2022/07/15 02:55:14;;;;;;;4.20;2.63;;;24.20;85.80;;;;;;5103693;28;20459;-93
2022/07/15 02:57:40;;;;;;;4.70;2.20;;;24.20;85.90;;;;;;5105163;28;20455;-95
2022/07/15 03:00:09;;;;;;;4.10;3.00;;;24.10;86.60;;;;;;5097955;28;20410;-95
2022/07/15 03:02:35;;;;;;;3.73;2.47;;;24.20;86.00;;;;;;5096733;28;20441;-95
2022/07/15 03:05:00;;;;;;;3.23;2.80;;;24.10;86.00;;;;;;5101715;28;20423;-93
2022/07/15 03:07:28;;;;;;;5.27;3.27;;;24.10;86.00;;;;;;5100599;28;20239;-94
2022/07/15 03:09:54;;;;;;;3.80;2.80;;;24.10;86.20;;;;;;5099228;28;20185;-93
2022/07/15 03:12:20;;;;;;;3.87;3.30;;;24.10;87.00;;;;;;5099008;28;20464;-95
2022/07/15 03:14:46;;;;;;;2.97;2.77;;;24.10;86.60;;;;;;5095291;28;20467;-93
2022/07/15 03:17:11;;;;;;;4.60;3.30;;;24.10;87.20;;;;;;5095200;28;20203;-95
2022/07/15 03:19:37;;;;;;;3.20;2.70;;;24.10;87.30;;;;;;5096438;28;20174;-93
2022/07/15 03:22:03;;;;;;;3.00;2.80;;;24.10;86.50;;;;;;5095044;28;20194;-96
2022/07/15 03:24:29;;;;;;;2.83;2.50;;;24.10;86.90;;;;;;5095146;28;20417;-94
2022/07/15 03:26:55;;;;;;;6.77;3.00;;;24.00;86.40;;;;;;5095015;28;20253;-95
2022/07/15 03:29:21;;;;;;;2.83;2.53;;;24.00;87.20;;;;;;5097136;28;21020;-94
2022/07/15 03:31:47;;;;;;;9.63;3.10;;;24.00;87.40;;;;;;5094765;28;20190;-94
2022/07/15 03:34:12;;;;;;;2.47;2.27;;;23.90;87.10;;;;;;5094737;28;20214;-94
2022/07/15 03:36:39;;;;;;;2.93;2.60;;;23.80;86.90;;;;;;5097633;28;20426;-94
2022/07/15 03:39:06;;;;;;;2.60;2.40;;;23.80;87.50;;;;;;5095068;28;20182;-95
2022/07/15 03:41:32;;;;;;;8.77;2.57;;;23.70;87.00;;;;;;5094656;28;20473;-94
2022/07/15 03:43:59;;;;;;;2.50;2.30;;;23.70;87.70;;;;;;5096022;28;20950;-94
2022/07/15 03:46:24;;;;;;;3.10;2.50;;;23.60;87.10;;;;;;5095739;28;20442;-94
2022/07/15 03:48:50;;;;;;;172.47;84.13;;;23.60;87.20;;;;;;5094922;28;20431;-95
2022/07/15 03:51:16;;;;;;;14.23;10.40;;;23.60;87.20;;;;;;5094529;28;20177;-94
2022/07/15 03:53:41;;;;;;;7.03;5.60;;;23.60;87.50;;;;;;5096012;28;20307;-95
2022/07/15 03:56:07;;;;;;;2.73;2.33;;;23.50;87.30;;;;;;5094436;28;20536;-94
2022/07/15 03:58:33;;;;;;;2.03;1.83;;;23.50;87.30;;;;;;5097043;28;20277;-94
2022/07/15 04:00:59;;;;;;;2.43;2.30;;;23.50;87.50;;;;;;5104757;28;20176;-93
2022/07/15 04:03:25;;;;;;;4.83;2.70;;;23.50;87.50;;;;;;5100634;28;20231;-94
2022/07/15 04:05:50;;;;;;;2.70;2.50;;;23.50;87.70;;;;;;5095222;28;20205;-93
2022/07/15 04:08:16;;;;;;;2.47;2.30;;;23.40;87.60;;;;;;5094263;28;20209;-94
2022/07/15 04:10:42;;;;;;;2.60;2.40;;;23.40;88.00;;;;;;5095655;28;20180;-93
2022/07/15 04:13:08;;;;;;;3.70;1.97;;;23.40;88.30;;;;;;5095339;28;20484;-94
2022/07/15 04:15:34;;;;;;;2.40;2.20;;;23.40;88.20;;;;;;5095145;28;20521;-93
2022/07/15 04:18:01;;;;;;;2.27;2.10;;;23.40;88.10;;;;;;5094119;28;20445;-94
2022/07/15 04:20:27;;;;;;;2.93;1.70;;;23.40;88.20;;;;;;5094984;28;20429;-94
2022/07/15 04:22:53;;;;;;;2.00;1.87;;;23.50;88.30;;;;;;5094011;28;20498;-94
2022/07/15 04:25:21;;;;;;;2.07;1.83;;;23.50;88.50;;;;;;5094433;28;20422;-94
2022/07/15 04:27:48;;;;;;;2.10;1.90;;;23.50;88.70;;;;;;5094114;28;20449;-94
2022/07/15 04:30:15;;;;;;;2.37;2.17;;;23.50;88.70;;;;;;5093751;28;20401;-94
2022/07/15 04:32:41;;;;;;;3.67;2.37;;;23.60;88.70;;;;;;5094080;28;20457;-95
2022/07/15 04:35:07;;;;;;;2.20;2.00;;;23.60;88.80;;;;;;5094846;28;20460;-93
2022/07/15 04:37:33;;;;;;;2.90;2.70;;;23.70;88.90;;;;;;5093672;28;20453;-95
2022/07/15 04:39:59;;;;;;;2.37;2.17;;;23.70;88.70;;;;;;5096124;28;20448;-95
2022/07/15 04:42:25;;;;;;;2.20;1.80;;;23.80;88.60;;;;;;5093803;28;20735;-96
2022/07/15 04:44:51;;;;;;;2.77;1.70;;;23.90;88.10;;;;;;5093958;28;20172;-95
2022/07/15 04:47:17;;;;;;;1.67;1.50;;;23.90;88.30;;;;;;5094251;28;20440;-94
2022/07/15 04:52:29;;;;;;;2.93;2.20;;;24.00;87.80;;;;;;5102139;28;20462;-94
2022/07/15 04:54:56;;;;;;;2.60;1.87;;;24.10;87.80;;;;;;5094595;28;20826;-93
2022/07/15 04:57:21;;;;;;;2.60;2.40;;;24.10;88.10;;;;;;5094965;28;20434;-94
2022/07/15 04:59:47;;;;;;;2.60;2.00;;;24.20;88.00;;;;;;5097418;28;20427;-94
2022/07/15 05:02:13;;;;;;;2.30;2.00;;;24.30;88.10;;;;;;5095602;28;20206;-94
2022/07/15 05:04:39;;;;;;;2.30;2.10;;;24.30;87.80;;;;;;5116729;28;20402;-94
2022/07/15 05:07:05;;;;;;;3.77;2.33;;;24.40;87.60;;;;;;5108816;28;20329;-96
2022/07/15 05:09:31;;;;;;;2.53;2.33;;;24.50;87.60;;;;;;5097724;28;20182;-94
2022/07/15 05:11:57;;;;;;;3.00;2.50;;;24.50;87.40;;;;;;5098866;28;20424;-95
2022/07/15 05:14:23;;;;;;;2.93;2.63;;;24.60;87.40;;;;;;5097933;28;20477;-93
2022/07/15 05:16:52;;;;;;;6.07;2.67;;;24.60;87.30;;;;;;5098927;28;20450;-95
2022/07/15 05:19:17;;;;;;;3.13;2.83;;;24.70;87.30;;;;;;5098313;28;20263;-95
2022/07/15 05:21:43;;;;;;;2.57;2.37;;;24.70;87.10;;;;;;5098978;28;20493;-95
2022/07/15 05:24:09;;;;;;;4.47;2.47;;;24.70;87.10;;;;;;5099016;28;20252;-94
2022/07/15 05:26:34;;;;;;;6.07;2.60;;;24.80;87.00;;;;;;5098290;28;20195;-95
2022/07/15 05:29:01;;;;;;;2.90;2.70;;;24.90;87.10;;;;;;5098672;28;20175;-93
2022/07/15 05:31:27;;;;;;;3.70;2.60;;;24.90;86.80;;;;;;5097718;28;20205;-95
2022/07/15 05:33:53;;;;;;;2.77;2.57;;;25.00;86.80;;;;;;5100139;28;20477;-94
2022/07/15 05:36:19;;;;;;;2.97;2.60;;;25.00;86.70;;;;;;5097262;28;20447;-95
2022/07/15 05:38:45;;;;;;;697.97;389.73;;;25.10;86.50;;;;;;5098405;28;20421;-96
2022/07/15 05:41:11;;;;;;;76.87;43.13;;;25.10;87.20;;;;;;5097074;28;20232;-95
2022/07/15 05:43:37;;;;;;;4.57;4.13;;;25.20;86.40;;;;;;5098737;28;20186;-95
2022/07/15 05:46:04;;;;;;;15.03;11.83;;;25.20;86.30;;;;;;5102062;28;20472;-95
2022/07/15 05:48:29;;;;;;;3.93;2.77;;;25.30;86.30;;;;;;5110082;28;20427;-95
2022/07/15 05:50:55;;;;;;;4.17;2.47;;;25.30;86.10;;;;;;5115846;28;20429;-94
2022/07/15 05:53:22;;;;;;;4.03;2.30;;;25.40;86.00;;;;;;5115516;28;20486;-94
2022/07/15 05:55:47;;;;;;;2.90;2.70;;;25.40;85.90;;;;;;5116235;28;20429;-94
2022/07/15 05:58:13;;;;;;;3.00;2.60;;;25.50;85.80;;;;;;5116494;28;20446;-95
2022/07/15 06:00:39;;;;;;;2.47;2.10;;;25.60;86.60;;;;;;5116343;28;20168;-94
2022/07/15 06:03:05;;;;;;;2.43;2.23;;;25.70;86.30;;;;;;5117843;28;20229;-93
2022/07/15 06:05:32;;;;;;;2.83;2.57;;;25.80;85.90;;;;;;5117047;28;20176;-94
2022/07/15 06:07:59;;;;;;;2.10;2.00;;;25.90;85.90;;;;;;5116027;28;20541;-95
2022/07/15 06:10:25;;;;;;;2.67;1.97;;;25.90;85.30;;;;;;5117296;28;20479;-96
2022/07/15 06:12:54;;;;;;;3.23;2.23;;;26.00;85.00;;;;;;5114930;28;20479;-96
2022/07/15 06:15:30;;;;;;;2.00;1.67;;;26.00;85.60;;;;;;5079667;28;20461;-95
2022/07/15 06:17:56;;;;;;;1.97;1.87;;;26.10;84.70;;;;;;5105015;28;20701;-96
2022/07/15 06:20:22;;;;;;;2.00;1.90;;;26.20;84.60;;;;;;5106037;28;20405;-95
2022/07/15 06:22:48;;;;;;;3.30;2.30;;;26.20;84.50;;;;;;5104428;28;20464;-96
2022/07/15 06:25:14;;;;;;;2.43;2.23;;;26.20;84.40;;;;;;5111492;28;20405;-96
2022/07/15 06:27:40;;;;;;;2.30;2.10;;;26.30;84.40;;;;;;5106658;28;20226;-96
2022/07/15 06:30:07;;;;;;;2.00;1.90;;;26.40;84.30;;;;;;5105271;28;20413;-94
2022/07/15 06:32:33;;;;;;;2.03;1.93;;;26.40;84.20;;;;;;5104449;28;20474;-96
2022/07/15 06:34:59;;;;;;;1.97;1.80;;;26.60;84.40;;;;;;5094445;28;20464;-94
2022/07/15 06:37:25;;;;;;;2.07;1.90;;;26.60;85.00;;;;;;5096609;28;20475;-95
2022/07/15 06:39:53;;;;;;;2.10;1.80;;;26.80;85.10;;;;;;5113028;28;20413;-95
2022/07/15 06:42:18;;;;;;;23.93;15.73;;;26.90;84.00;;;;;;5114754;28;20685;-95
2022/07/15 06:44:44;;;;;;;4.63;4.00;;;27.00;84.10;;;;;;5119422;28;20456;-95
2022/07/15 06:47:10;;;;;;;12.00;9.15;;;27.10;83.80;;;;;;5111456;28;20825;-96
2022/07/15 06:49:36;;;;;;;5.00;2.63;;;27.10;83.40;;;;;;5104883;28;20189;-95
2022/07/15 06:52:03;;;;;;;6.03;3.30;;;27.20;83.30;;;;;;5099744;28;20227;-95
2022/07/15 06:54:28;;;;;;;7.20;2.80;;;27.30;83.10;;;;;;5114511;28;20470;-96
2022/07/15 06:56:54;;;;;;;1.87;1.77;;;27.40;82.90;;;;;;5119970;28;20440;-95
2022/07/15 06:59:20;;;;;;;3.80;1.77;;;27.40;82.80;;;;;;5113881;28;20191;-96
2022/07/15 07:01:46;;;;;;;2.03;1.57;;;27.50;83.30;;;;;;5111545;28;20218;-96
2022/07/15 07:04:12;;;;;;;1.93;1.53;;;27.60;82.50;;;;;;5111613;28;20932;-96
2022/07/15 07:06:38;;;;;;;1.80;1.50;;;27.70;81.90;;;;;;5107385;28;20473;-96
2022/07/15 07:09:04;;;;;;;2.10;1.43;;;27.70;81.60;;;;;;5110601;28;20189;-96
2022/07/15 07:11:30;;;;;;;2.97;1.83;;;27.70;81.70;;;;;;5094123;28;20199;-95
2022/07/15 07:13:56;;;;;;;1.60;1.50;;;27.70;81.60;;;;;;5095667;28;20502;-96
2022/07/15 07:16:22;;;;;;;1.80;1.70;;;27.70;81.50;;;;;;5116763;28;20204;-96
2022/07/15 07:18:50;;;;;;;2.20;2.00;;;27.80;81.70;;;;;;5127333;27;20456;-95
2022/07/15 07:21:16;;;;;;;2.20;1.80;;;27.90;81.60;;;;;;5103547;28;20176;-96
2022/07/15 07:23:42;;;;;;;2.17;1.53;;;28.00;81.50;;;;;;5113876;28;20424;-94
2022/07/15 07:26:09;;;;;;;1.83;1.60;;;28.10;81.30;;;;;;5120721;28;20459;-93
2022/07/15 07:28:40;;;;;;;3.37;1.30;;;28.20;81.20;;;;;;5117263;28;20793;-93
2022/07/15 07:31:07;;;;;;;2.20;2.00;;;28.30;80.80;;;;;;5118356;28;20436;-95
2022/07/15 07:33:33;;;;;;;1.70;1.50;;;28.40;80.90;;;;;;5116786;28;20451;-96
2022/07/15 07:35:59;;;;;;;2.93;1.50;;;28.50;80.60;;;;;;5110442;28;21012;-95
2022/07/15 07:38:24;;;;;;;1.33;1.23;;;28.50;80.20;;;;;;5114681;28;20429;-96
2022/07/15 07:40:50;;;;;;;1.40;1.30;;;28.60;79.90;;;;;;5112729;28;20187;-95
2022/07/15 07:43:19;;;;;;;1.67;1.17;;;28.70;79.80;;;;;;5107073;28;20257;-96
2022/07/15 07:45:46;;;;;;;1.20;1.10;;;28.80;79.70;;;;;;5115702;28;20180;-96
2022/07/15 07:48:12;;;;;;;3.30;1.47;;;28.90;79.20;;;;;;5114570;28;20485;-96
2022/07/15 07:50:39;;;;;;;1.10;1.00;;;29.00;79.30;;;;;;5112357;28;20471;-92
2022/07/15 07:53:05;;;;;;;1.30;1.20;;;29.10;78.90;;;;;;5112187;28;20444;-94
2022/07/15 07:55:31;;;;;;;1.40;1.30;;;29.10;78.70;;;;;;5103251;28;20472;-92
2022/07/15 07:57:58;;;;;;;1.37;1.20;;;29.20;78.50;;;;;;5091000;28;20553;-93
2022/07/15 08:00:29;;;;;;;5.07;1.60;;;29.30;78.10;;;;;;5102447;28;20194;-94
2022/07/15 08:02:56;;;;;;;2.30;1.40;;;29.30;77.60;;;;;;5092579;28;20978;-94
2022/07/15 08:05:23;;;;;;;1.40;1.00;;;29.50;77.70;;;;;;5108548;28;20455;-95
2022/07/15 08:07:49;;;;;;;1.80;1.70;;;29.50;76.60;;;;;;5095206;28;20544;-95
2022/07/15 08:10:16;;;;;;;2.17;1.33;;;29.50;77.20;;;;;;5095876;28;20416;-95
2022/07/15 08:12:42;;;;;;;1.30;1.20;;;29.60;77.60;;;;;;5101588;28;20212;-94
2022/07/15 08:15:12;;;;;;;17.13;9.13;;;29.70;77.20;;;;;;5102709;28;20455;-94
2022/07/15 08:17:40;;;;;;;18.33;13.48;;;29.80;77.10;;;;;;5097087;28;20418;-94
2022/07/15 08:20:10;;;;;;;1.40;1.30;;;29.80;77.00;;;;;;5105213;28;20229;-95
2022/07/15 08:22:36;;;;;;;1.57;1.47;;;29.80;76.90;;;;;;5112627;28;20634;-96
2022/07/15 08:25:02;;;;;;;1.60;1.07;;;29.90;77.20;;;;;;5103967;28;20525;-95
2022/07/15 08:27:30;;;;;;;2.53;1.20;;;30.00;77.20;;;;;;5097783;28;20462;-95
2022/07/15 08:29:55;;;;;;;1.50;1.40;;;30.00;77.10;;;;;;5115245;28;20419;-95
2022/07/15 08:32:21;;;;;;;1.83;1.73;;;30.10;77.00;;;;;;5114374;28;20447;-94
2022/07/15 08:34:47;;;;;;;1.00;1.00;;;30.20;76.90;;;;;;5111686;28;20565;-94
2022/07/15 08:37:13;;;;;;;1.90;1.57;;;30.30;76.50;;;;;;5117520;28;20279;-94
2022/07/15 08:39:40;;;;;;;1.60;1.17;;;30.40;76.60;;;;;;5096708;28;20277;-96
2022/07/15 08:42:06;;;;;;;1.30;1.20;;;30.50;76.40;;;;;;5112416;28;20526;-95
2022/07/15 08:44:32;;;;;;;1.97;1.33;;;30.50;76.30;;;;;;5114223;28;20415;-94
2022/07/15 08:47:02;;;;;;;1.63;1.47;;;30.70;75.60;;;;;;5103637;28;20503;-93
2022/07/15 08:49:33;;;;;;;1.57;1.47;;;30.80;75.80;;;;;;5102815;28;20419;-96
2022/07/15 08:52:00;;;;;;;1.33;1.20;;;30.80;75.10;;;;;;5112444;28;21004;-95
2022/07/15 08:54:27;;;;;;;1.70;1.60;;;30.90;75.00;;;;;;5106422;28;20516;-95
2022/07/15 08:56:52;;;;;;;8.37;1.53;;;31.00;74.60;;;;;;5098838;28;20520;-95
2022/07/15 08:59:18;;;;;;;1.47;1.37;;;31.00;74.80;;;;;;5110482;28;20956;-93
2022/07/15 09:01:46;;;;;;;1.37;1.27;;;31.10;74.50;;;;;;5100971;28;20264;-95
2022/07/15 09:04:13;;;;;;;1.40;1.30;;;31.20;74.20;;;;;;5101542;28;20183;-94
2022/07/15 09:06:44;;;;;;;1.67;1.57;;;31.20;74.00;;;;;;5099322;28;20475;-95
2022/07/15 09:09:36;;;;;;;2.10;1.23;;;31.30;73.50;;;;;;5096302;28;20522;-95
2022/07/15 09:12:10;;;;;;;1.77;1.67;;;31.40;73.70;;;;;;5099294;28;20457;-95
2022/07/15 09:14:39;;;;;;;2.60;2.17;;;31.50;74.00;;;;;;5096327;28;20467;-94
2022/07/15 09:17:21;;;;;;;4.00;2.23;;;31.50;75.30;;;;;;5097474;28;20449;-94
2022/07/15 09:20:09;;;;;;;1.97;1.60;;;31.50;76.00;;;;;;5103400;28;20440;-96
2022/07/15 09:22:55;;;;;;;2.47;2.10;;;31.60;76.00;;;;;;5106354;28;20460;-94
2022/07/15 09:25:22;;;;;;;3.23;1.70;;;31.50;75.80;;;;;;5100428;28;20425;-96
2022/07/15 09:27:48;;;;;;;1.67;1.57;;;31.50;76.10;;;;;;5103202;28;20505;-96
2022/07/15 09:33:34;;;;;;;2.20;2.00;;;31.50;76.70;;;;;;5109270;28;20490;-93
2022/07/15 09:36:22;;;;;;;1.97;1.80;;;31.50;75.70;;;;;;5093079;28;20416;-93
2022/07/15 09:38:57;;;;;;;1.80;1.70;;;31.50;76.10;;;;;;5094409;28;20493;-94
2022/07/15 09:41:37;;;;;;;1.93;1.70;;;31.40;75.90;;;;;;5097327;28;20440;-95
2022/07/15 09:44:13;;;;;;;2.80;2.00;;;31.30;75.90;;;;;;5092762;28;20444;-93
2022/07/15 09:46:52;;;;;;;2.20;1.97;;;31.10;75.90;;;;;;5108247;28;20446;-92
2022/07/15 09:49:27;;;;;;;2.10;1.90;;;31.10;76.30;;;;;;5111175;28;20554;-94
2022/07/15 09:52:06;;;;;;;2.13;2.03;;;31.00;76.60;;;;;;5102246;28;20503;-92
2022/07/15 09:54:34;;;;;;;1.80;1.70;;;31.00;76.60;;;;;;5104826;28;20510;-93
2022/07/15 09:57:05;;;;;;;2.57;1.57;;;31.00;76.40;;;;;;5111662;28;20998;-95
2022/07/15 09:59:32;;;;;;;2.30;1.80;;;31.00;76.00;;;;;;5121685;28;20423;-94
2022/07/15 10:02:02;;;;;;;1.50;1.40;;;30.90;75.50;;;;;;5128556;28;20436;-95
2022/07/15 10:04:30;;;;;;;1.90;1.80;;;30.80;75.50;;;;;;5115058;28;20441;-96
2022/07/15 10:06:59;;;;;;;1.83;1.70;;;30.70;75.80;;;;;;5122039;28;20467;-95
2022/07/15 10:09:29;;;;;;;1.90;1.80;;;30.70;75.90;;;;;;5121446;28;20447;-93
2022/07/15 10:12:08;;;;;;;1.87;1.77;;;30.70;75.90;;;;;;5107630;28;20512;-94
2022/07/15 10:14:35;;;;;;;5.07;1.90;;;30.70;75.80;;;;;;5106085;28;20621;-93
2022/07/15 10:17:28;;;;;;;1.80;1.63;;;30.70;75.90;;;;;;5109423;28;20444;-95
2022/07/15 10:20:17;;;;;;;1.83;1.67;;;30.60;75.90;;;;;;5111553;28;20527;-95
2022/07/15 10:23:06;;;;;;;4.07;1.97;;;30.50;76.00;;;;;;5106816;28;20465;-94
2022/07/15 10:25:48;;;;;;;2.60;2.33;;;30.40;76.20;;;;;;5114952;28;20415;-94
2022/07/15 10:28:34;;;;;;;2.03;1.93;;;30.30;76.60;;;;;;5098079;28;20447;-95
2022/07/15 10:31:22;;;;;;;1.90;1.60;;;30.20;77.50;;;;;;5094491;28;20417;-94
2022/07/15 10:34:03;;;;;;;2.47;2.03;;;30.20;76.90;;;;;;5098231;28;20523;-94
2022/07/15 10:36:39;;;;;;;3.07;2.20;;;30.20;76.60;;;;;;5106293;28;20468;-95
2022/07/15 10:39:05;;;;;;;2.43;1.67;;;30.20;76.70;;;;;;5122690;28;20472;-93
2022/07/15 10:41:54;;;;;;;2.43;2.13;;;30.20;76.70;;;;;;5114720;28;20434;-94
2022/07/15 10:44:20;;;;;;;2.17;2.07;;;30.20;77.40;;;;;;5116354;28;20859;-94
2022/07/15 10:46:47;;;;;;;4.13;2.10;;;30.20;77.60;;;;;;5111721;28;20508;-94
2022/07/15 10:49:12;;;;;;;1.90;1.70;;;30.20;77.20;;;;;;5113665;28;20421;-94
2022/07/15 10:51:39;;;;;;;4.13;2.23;;;30.20;76.70;;;;;;5114017;28;20780;-95
2022/07/15 10:54:09;;;;;;;2.10;1.90;;;30.20;76.40;;;;;;5122247;28;20196;-95
2022/07/15 10:56:44;;;;;;;2.67;2.20;;;30.20;76.30;;;;;;5122888;28;20440;-93
2022/07/15 10:59:20;;;;;;;3.00;2.20;;;30.20;76.30;;;;;;5112949;28;20458;-94
2022/07/15 11:01:49;;;;;;;1.73;1.63;;;30.20;75.10;;;;;;5116805;28;20438;-93
2022/07/15 11:04:18;;;;;;;2.30;2.10;;;30.20;74.60;;;;;;5109822;28;20452;-93
2022/07/15 11:07:09;;;;;;;1.80;1.70;;;30.20;74.50;;;;;;5091558;28;20853;-93
2022/07/15 11:09:57;;;;;;;3.47;1.90;;;30.10;74.60;;;;;;5104647;28;20513;-94
2022/07/15 11:12:30;;;;;;;5.60;2.20;;;30.10;74.40;;;;;;5120457;28;20486;-94
2022/07/15 11:15:12;;;;;;;2.43;1.97;;;30.10;75.20;;;;;;5115908;28;20521;-95
2022/07/15 11:17:41;;;;;;;2.67;2.53;;;30.20;74.20;;;;;;5111935;28;20494;-93
2022/07/15 11:20:12;;;;;;;2.27;2.07;;;30.20;74.00;;;;;;5114264;28;20409;-95
2022/07/15 11:22:45;;;;;;;4.90;2.43;;;30.20;73.00;;;;;;5094752;28;20507;-94
2022/07/15 11:25:32;;;;;;;2.03;1.93;;;30.20;73.40;;;;;;5116505;28;20430;-91
2022/07/15 11:28:05;;;;;;;3.27;1.83;;;30.20;73.60;;;;;;5115003;28;20447;-92
2022/07/15 11:30:44;;;;;;;4.00;2.20;;;30.20;73.60;;;;;;5115991;28;20465;-93
2022/07/15 11:33:15;;;;;;;2.60;2.10;;;30.20;72.20;;;;;;5127663;28;20458;-93
2022/07/15 11:35:47;;;;;;;2.17;2.03;;;30.30;71.00;;;;;;5106604;28;20461;-93
2022/07/15 11:38:13;;;;;;;3.67;2.20;;;30.30;71.70;;;;;;5128288;27;20453;-94
2022/07/15 11:46:52;;;;;;;3.07;2.67;;;30.40;72.30;;;;;;5114956;28;20487;-95
2022/07/15 11:49:41;;;;;;;2.70;2.17;;;30.40;73.80;;;;;;5115031;28;20490;-95
2022/07/15 11:52:12;;;;;;;2.70;2.10;;;30.40;74.10;;;;;;5109442;28;20420;-95
2022/07/15 11:54:41;;;;;;;2.30;2.10;;;30.30;74.80;;;;;;5111176;28;20512;-96
2022/07/15 11:57:09;;;;;;;2.60;2.20;;;30.20;75.10;;;;;;5106424;28;20830;-95
2022/07/15 11:59:35;;;;;;;2.60;2.40;;;29.90;75.90;;;;;;5124093;28;20466;-95
2022/07/15 12:02:05;;;;;;;2.43;2.00;;;29.90;75.70;;;;;;5115843;28;20952;-94
2022/07/15 12:04:33;;;;;;;7.57;2.10;;;29.80;74.70;;;;;;5107626;28;20436;-95
2022/07/15 12:06:59;;;;;;;2.30;1.90;;;29.80;74.60;;;;;;5101040;28;20481;-94
2022/07/15 12:09:37;;;;;;;2.80;2.10;;;29.70;75.70;;;;;;5109941;28;20434;-94
2022/07/15 12:12:03;;;;;;;2.70;2.50;;;29.60;75.70;;;;;;5095101;28;20199;-95
2022/07/15 12:14:29;;;;;;;4.50;2.23;;;29.60;74.80;;;;;;5102461;28;20471;-94
2022/07/15 12:16:55;;;;;;;2.40;2.20;;;29.60;76.10;;;;;;5099529;28;21036;-95
2022/07/15 12:19:27;;;;;;;2.30;2.20;;;29.60;74.70;;;;;;5113061;28;20203;-96
2022/07/15 12:21:57;;;;;;;2.53;2.10;;;29.50;74.50;;;;;;5100481;28;20781;-94
2022/07/15 12:24:28;;;;;;;2.27;2.10;;;29.50;75.80;;;;;;5101620;28;20449;-94
2022/07/15 12:26:54;;;;;;;4.27;2.30;;;29.40;76.50;;;;;;5092336;28;20432;-96
2022/07/15 12:29:29;;;;;;;6.73;1.97;;;29.40;75.70;;;;;;5096543;28;20949;-94
2022/07/15 12:32:04;;;;;;;2.20;2.00;;;29.40;75.80;;;;;;5105999;28;20256;-95
2022/07/15 12:34:54;;;;;;;2.90;1.80;;;29.40;74.80;;;;;;5096842;28;20474;-95
2022/07/15 12:37:44;;;;;;;2.20;2.10;;;29.40;76.60;;;;;;5115784;27;20467;-95
2022/07/15 12:40:12;;;;;;;2.13;1.93;;;29.40;75.80;;;;;;5085857;28;20433;-96
2022/07/15 12:42:52;;;;;;;2.23;2.00;;;29.40;76.40;;;;;;5092265;28;20456;-96
2022/07/15 12:45:35;;;;;;;2.53;2.00;;;29.50;75.90;;;;;;5114470;28;20437;-94
2022/07/15 12:48:08;;;;;;;1.80;1.50;;;29.40;76.60;;;;;;5109248;28;20476;-96
2022/07/15 12:50:34;;;;;;;2.40;1.60;;;29.40;76.60;;;;;;5110110;28;20443;-93
2022/07/15 12:53:01;;;;;;;2.30;1.90;;;29.40;71.70;;;;;;5111855;28;20473;-96
2022/07/15 12:55:30;;;;;;;2.40;2.20;;;29.50;71.00;;;;;;5094491;28;20219;-95
2022/07/15 12:58:07;;;;;;;2.00;1.90;;;29.60;72.00;;;;;;5094838;28;20476;-94
2022/07/15 13:00:34;;;;;;;3.60;2.10;;;29.70;72.10;;;;;;5096467;28;20451;-95
2022/07/15 13:03:15;;;;;;;3.20;1.90;;;29.80;72.40;;;;;;5098326;28;20503;-95
2022/07/15 13:05:43;;;;;;;2.00;1.63;;;29.80;70.80;;;;;;5091394;28;20687;-96